Aérodrome :
LOGIN :

S'inscrire | Disclaimer

   EN    FR    IT 

 










Légende :    VFR   VFR Marginal   IFR   IFR Intensif   IFR Très Intensif
Visi : 
Plafond : 
>= 8 km
>= 3000ft
5 à 8 km
1000 à 3000 ft
1500m à 5 km
500 à 1000 ft
800 à 1500m
200 à 500 ft
< 800m
< 200 ft
Symboles :   Orages  Brouillard  Fortes neiges  Fortes précipitations  Vent > 20 kt
SIGMETs :   Divers  Orages  Givrage  Turbulence  Onde Orograph.  Cendres Volcan.







- Altitude de l'aérodrome : 587 ft
- Code IATA : XCR
- Voir les cartes d'approche


LFOK - Chalons Vatry

DERNIER METAR :
  • 211000Z AUTO 11003KT 9999 FEW038 BKN094 OVC120 04/02 Q1018 NOSIG

METARs EXPIRÉS :
  • 210930Z AUTO 11002KT CAVOK 04/02 Q1017 NOSIG
  • 210900Z AUTO 00000KT CAVOK 04/02 Q1017 NOSIG
  • 210830Z AUTO 00000KT CAVOK 03/01 Q1017 NOSIG
  • 210800Z AUTO VRB01KT 9999 FEW024 OVC100 03/01 Q1017 NOSIG
  • 210730Z AUTO 02003KT 9999 FEW017 SCT023 OVC100 03/01 Q1016 NOSIG

TAF TAF LFOK
Valide du 21 à 06h jusqu'au 22 à 06h UTC


210500Z 2106/2206 36008KT 9999 BKN016
TEMPO 2106/2108 BKN012
BECMG 2113/2116 16010KT 4000 RA OVC010
TEMPO 2116/2206 2000 RADZ OVC003
BECMG 2122/2124 25012KT
Pas de NOTAMs connus pour ce terrain.
3 SIGMETs publiés pour la FIR Paris (LFFF) :
 
Givrage fort
LFFF SIGMET 3 VALID 210900/211300 LFPW
LFFF PARIS FIR/UIR SEV ICE OBS AT 0900Z S OF N4700 AND E OF E00345 FL140/240 MOV E 10KT WKN=
Annulation du SIGMET 1 
LFFF SIGMET 2 VALID 210855/211200 LFPW
LFFF PARIS FIR/UIR CNL SIGMET 1 210800/211200=
SIGMET 1  ANNULÉ :
Givrage fort
LFFF SIGMET 1 VALID 210800/211200 LFPW
LFFF PARIS FIR/UIR SEV ICE FCST WI N4845 W00015 - N5000 W00015 - N5030 E00045 - N4830 E00330 - N4730 E00130 - N4845 W00015 FL050/150 MOV NE 15KT NC=



MET'MAP, la Météo Aéronautique d'un coup d'oeil ! - Copyright ORBIFLY Décembre 2007 - Disclaimer

ORBIFLY MET'MAP TEAM :

Programmation & Développement : Alexandra Zaïnal
Conception & Développement : Baudouin d'Aumeries
Co-Programmation & Développement : Marc-Olivier Méhu
Soutien technique & logistique : Manuel Goepfert

Contact : metmap@orbifly.com




SOURCES & CREDITS :

   NOAA